sensor_id;sensor_type;location;lat;lon;timestamp;temperature;humidity
3504;DHT22;1766;53.490;10.174;2023-10-13T00:01:36;19.40;79.50
3504;DHT22;1766;53.490;10.174;2023-10-13T00:03:38;19.40;79.50
3504;DHT22;1766;53.490;10.174;2023-10-13T00:05:41;19.50;80.30
3504;DHT22;1766;53.490;10.174;2023-10-13T00:07:43;19.50;79.70
3504;DHT22;1766;53.490;10.174;2023-10-13T00:09:45;19.50;79.70
3504;DHT22;1766;53.490;10.174;2023-10-13T00:11:46;19.50;79.70
3504;DHT22;1766;53.490;10.174;2023-10-13T00:13:49;19.50;79.80
3504;DHT22;1766;53.490;10.174;2023-10-13T00:15:51;19.50;79.90
3504;DHT22;1766;53.490;10.174;2023-10-13T00:17:57;19.50;79.90
3504;DHT22;1766;53.490;10.174;2023-10-13T00:19:59;19.50;79.80
3504;DHT22;1766;53.490;10.174;2023-10-13T00:22:01;19.50;79.90
3504;DHT22;1766;53.490;10.174;2023-10-13T00:24:09;19.50;80.00
3504;DHT22;1766;53.490;10.174;2023-10-13T00:26:14;19.50;80.10
3504;DHT22;1766;53.490;10.174;2023-10-13T00:28:18;19.60;80.30
3504;DHT22;1766;53.490;10.174;2023-10-13T00:30:25;19.60;80.20
3504;DHT22;1766;53.490;10.174;2023-10-13T00:32:33;19.60;80.30
3504;DHT22;1766;53.490;10.174;2023-10-13T00:34:38;19.60;80.30
3504;DHT22;1766;53.490;10.174;2023-10-13T00:36:41;19.60;80.40
3504;DHT22;1766;53.490;10.174;2023-10-13T00:38:49;19.50;80.40
3504;DHT22;1766;53.490;10.174;2023-10-13T00:40:52;19.50;80.40
3504;DHT22;1766;53.490;10.174;2023-10-13T00:42:54;19.50;80.50
3504;DHT22;1766;53.490;10.174;2023-10-13T00:45:07;19.50;80.70
3504;DHT22;1766;53.490;10.174;2023-10-13T00:47:10;19.50;80.90
3504;DHT22;1766;53.490;10.174;2023-10-13T00:49:22;19.50;81.00
3504;DHT22;1766;53.490;10.174;2023-10-13T00:51:24;19.50;81.20
3504;DHT22;1766;53.490;10.174;2023-10-13T00:53:36;19.50;81.20
3504;DHT22;1766;53.490;10.174;2023-10-13T00:55:40;19.50;81.20
3504;DHT22;1766;53.490;10.174;2023-10-13T00:57:44;19.50;81.30
3504;DHT22;1766;53.490;10.174;2023-10-13T00:59:48;19.50;81.40
3504;DHT22;1766;53.490;10.174;2023-10-13T01:01:51;19.50;81.60
3504;DHT22;1766;53.490;10.174;2023-10-13T01:03:57;19.50;81.70
3504;DHT22;1766;53.490;10.174;2023-10-13T01:06:02;19.60;81.90
3504;DHT22;1766;53.490;10.174;2023-10-13T01:08:04;19.60;81.90
3504;DHT22;1766;53.490;10.174;2023-10-13T01:10:11;19.60;82.00
3504;DHT22;1766;53.490;10.174;2023-10-13T01:12:14;19.60;82.20
3504;DHT22;1766;53.490;10.174;2023-10-13T01:14:16;19.60;82.10
3504;DHT22;1766;53.490;10.174;2023-10-13T01:16:19;19.60;82.30
3504;DHT22;1766;53.490;10.174;2023-10-13T01:18:24;19.60;82.50
3504;DHT22;1766;53.490;10.174;2023-10-13T01:20:30;19.60;82.50
3504;DHT22;1766;53.490;10.174;2023-10-13T01:22:33;19.50;82.60
3504;DHT22;1766;53.490;10.174;2023-10-13T01:24:38;19.50;82.80
3504;DHT22;1766;53.490;10.174;2023-10-13T01:26:40;19.50;82.90
3504;DHT22;1766;53.490;10.174;2023-10-13T01:28:43;19.50;83.00
3504;DHT22;1766;53.490;10.174;2023-10-13T01:30:47;19.50;83.10
3504;DHT22;1766;53.490;10.174;2023-10-13T01:32:51;19.60;83.40
3504;DHT22;1766;53.490;10.174;2023-10-13T01:34:54;19.60;83.60
3504;DHT22;1766;53.490;10.174;2023-10-13T01:36:56;19.50;83.40
3504;DHT22;1766;53.490;10.174;2023-10-13T01:39:07;19.60;83.70
3504;DHT22;1766;53.490;10.174;2023-10-13T01:41:09;19.60;83.70
3504;DHT22;1766;53.490;10.174;2023-10-13T01:43:13;21.00;85.20
3504;DHT22;1766;53.490;10.174;2023-10-13T01:45:15;19.60;84.40
3504;DHT22;1766;53.490;10.174;2023-10-13T01:47:20;19.60;83.90
3504;DHT22;1766;53.490;10.174;2023-10-13T01:49:23;19.60;83.90
3504;DHT22;1766;53.490;10.174;2023-10-13T01:51:25;19.60;84.00
3504;DHT22;1766;53.490;10.174;2023-10-13T03:02:44;19.60;87.50
3504;DHT22;1766;53.490;10.174;2023-10-13T03:04:48;19.60;87.80
3504;DHT22;1766;53.490;10.174;2023-10-13T03:06:49;19.60;87.90
3504;DHT22;1766;53.490;10.174;2023-10-13T03:08:52;19.70;88.00
3504;DHT22;1766;53.490;10.174;2023-10-13T03:10:53;19.70;87.90
3504;DHT22;1766;53.490;10.174;2023-10-13T03:12:55;19.70;87.80
3504;DHT22;1766;53.490;10.174;2023-10-13T03:14:56;19.70;88.00
3504;DHT22;1766;53.490;10.174;2023-10-13T03:17:14;19.70;88.10
3504;DHT22;1766;53.490;10.174;2023-10-13T03:19:21;19.70;88.30
3504;DHT22;1766;53.490;10.174;2023-10-13T03:21:23;19.70;88.50
3504;DHT22;1766;53.490;10.174;2023-10-13T03:23:31;19.70;88.50
3504;DHT22;1766;53.490;10.174;2023-10-13T03:25:46;19.70;88.60
3504;DHT22;1766;53.490;10.174;2023-10-13T03:27:50;19.70;88.70
3504;DHT22;1766;53.490;10.174;2023-10-13T03:30:05;19.70;88.90
3504;DHT22;1766;53.490;10.174;2023-10-13T03:32:13;19.80;89.10
3504;DHT22;1766;53.490;10.174;2023-10-13T03:34:16;19.80;89.20
3504;DHT22;1766;53.490;10.174;2023-10-13T03:36:21;19.80;89.20
3504;DHT22;1766;53.490;10.174;2023-10-13T03:38:53;19.80;89.30
3504;DHT22;1766;53.490;10.174;2023-10-13T03:40:55;19.80;89.30
3504;DHT22;1766;53.490;10.174;2023-10-13T03:43:07;19.90;90.10
3504;DHT22;1766;53.490;10.174;2023-10-13T03:45:10;19.80;89.50
3504;DHT22;1766;53.490;10.174;2023-10-13T03:47:12;19.90;89.80
3504;DHT22;1766;53.490;10.174;2023-10-13T03:49:26;19.90;90.00
3504;DHT22;1766;53.490;10.174;2023-10-13T03:51:31;19.90;90.00
3504;DHT22;1766;53.490;10.174;2023-10-13T03:53:35;19.90;90.00
3504;DHT22;1766;53.490;10.174;2023-10-13T03:55:50;20.00;90.30
3504;DHT22;1766;53.490;10.174;2023-10-13T03:58:08;20.00;90.00
3504;DHT22;1766;53.490;10.174;2023-10-13T04:00:12;20.00;90.10
3504;DHT22;1766;53.490;10.174;2023-10-13T04:02:21;20.00;90.10
3504;DHT22;1766;53.490;10.174;2023-10-13T04:04:28;20.00;90.20
3504;DHT22;1766;53.490;10.174;2023-10-13T04:06:50;20.00;90.20
3504;DHT22;1766;53.490;10.174;2023-10-13T04:08:54;20.00;90.30
3504;DHT22;1766;53.490;10.174;2023-10-13T04:11:10;20.00;90.30
3504;DHT22;1766;53.490;10.174;2023-10-13T04:13:26;20.10;90.40
3504;DHT22;1766;53.490;10.174;2023-10-13T04:15:43;20.10;90.40
3504;DHT22;1766;53.490;10.174;2023-10-13T04:18:05;20.10;90.50
3504;DHT22;1766;53.490;10.174;2023-10-13T04:20:18;20.10;90.60
3504;DHT22;1766;53.490;10.174;2023-10-13T04:22:36;20.10;90.60
3504;DHT22;1766;53.490;10.174;2023-10-13T04:24:53;20.20;90.70
3504;DHT22;1766;53.490;10.174;2023-10-13T04:27:22;20.20;90.80
3504;DHT22;1766;53.490;10.174;2023-10-13T04:29:39;20.20;90.80
3504;DHT22;1766;53.490;10.174;2023-10-13T04:31:55;20.30;90.90
3504;DHT22;1766;53.490;10.174;2023-10-13T04:34:00;20.30;90.90
3504;DHT22;1766;53.490;10.174;2023-10-13T04:36:03;20.30;90.90
3504;DHT22;1766;53.490;10.174;2023-10-13T04:38:15;20.30;91.10
3504;DHT22;1766;53.490;10.174;2023-10-13T04:40:21;20.30;91.10
3504;DHT22;1766;53.490;10.174;2023-10-13T04:42:25;20.30;91.10
3504;DHT22;1766;53.490;10.174;2023-10-13T04:44:50;20.40;91.20
3504;DHT22;1766;53.490;10.174;2023-10-13T04:46:54;20.40;91.20
3504;DHT22;1766;53.490;10.174;2023-10-13T04:49:08;20.40;91.30
3504;DHT22;1766;53.490;10.174;2023-10-13T04:51:27;20.50;91.30
3504;DHT22;1766;53.490;10.174;2023-10-13T04:53:44;20.50;91.30
3504;DHT22;1766;53.490;10.174;2023-10-13T04:56:00;20.50;91.30
3504;DHT22;1766;53.490;10.174;2023-10-13T04:58:31;20.60;91.40
3504;DHT22;1766;53.490;10.174;2023-10-13T05:01:06;20.60;91.50
3504;DHT22;1766;53.490;10.174;2023-10-13T05:03:38;20.60;91.50
3504;DHT22;1766;53.490;10.174;2023-10-13T05:05:55;20.60;91.50
3504;DHT22;1766;53.490;10.174;2023-10-13T05:08:11;20.60;91.50
3504;DHT22;1766;53.490;10.174;2023-10-13T05:10:28;20.60;91.60
3504;DHT22;1766;53.490;10.174;2023-10-13T05:12:44;20.60;91.60
3504;DHT22;1766;53.490;10.174;2023-10-13T05:15:00;20.70;91.70
3504;DHT22;1766;53.490;10.174;2023-10-13T05:17:15;20.70;91.70
3504;DHT22;1766;53.490;10.174;2023-10-13T05:19:31;20.70;91.80
3504;DHT22;1766;53.490;10.174;2023-10-13T05:21:47;20.70;91.80
3504;DHT22;1766;53.490;10.174;2023-10-13T05:24:03;20.70;91.90
3504;DHT22;1766;53.490;10.174;2023-10-13T05:26:21;20.80;91.90
3504;DHT22;1766;53.490;10.174;2023-10-13T05:28:37;20.80;91.90
3504;DHT22;1766;53.490;10.174;2023-10-13T05:30:52;20.80;92.00
3504;DHT22;1766;53.490;10.174;2023-10-13T05:33:08;20.80;92.00
3504;DHT22;1766;53.490;10.174;2023-10-13T05:35:24;20.80;92.10
3504;DHT22;1766;53.490;10.174;2023-10-13T05:37:40;20.90;92.10
3504;DHT22;1766;53.490;10.174;2023-10-13T05:39:56;20.90;92.10
3504;DHT22;1766;53.490;10.174;2023-10-13T05:42:13;20.90;92.20
3504;DHT22;1766;53.490;10.174;2023-10-13T05:44:29;21.00;92.20
3504;DHT22;1766;53.490;10.174;2023-10-13T05:46:44;21.00;92.60
3504;DHT22;1766;53.490;10.174;2023-10-13T05:49:02;21.00;92.30
3504;DHT22;1766;53.490;10.174;2023-10-13T05:51:28;21.10;92.40
3504;DHT22;1766;53.490;10.174;2023-10-13T05:53:33;21.10;92.50
3504;DHT22;1766;53.490;10.174;2023-10-13T05:55:49;21.10;92.40
3504;DHT22;1766;53.490;10.174;2023-10-13T05:58:06;21.10;92.50
3504;DHT22;1766;53.490;10.174;2023-10-13T06:00:22;21.10;92.50
3504;DHT22;1766;53.490;10.174;2023-10-13T06:02:37;21.20;92.70
3504;DHT22;1766;53.490;10.174;2023-10-13T06:04:53;21.20;92.70
3504;DHT22;1766;53.490;10.174;2023-10-13T06:07:09;21.30;92.80
3504;DHT22;1766;53.490;10.174;2023-10-13T06:09:25;21.30;92.80
3504;DHT22;1766;53.490;10.174;2023-10-13T06:11:41;21.30;92.80
3504;DHT22;1766;53.490;10.174;2023-10-13T06:13:58;21.40;92.90
3504;DHT22;1766;53.490;10.174;2023-10-13T06:16:15;21.40;92.90
3504;DHT22;1766;53.490;10.174;2023-10-13T06:18:31;21.40;92.90
3504;DHT22;1766;53.490;10.174;2023-10-13T06:20:47;21.40;93.00
3504;DHT22;1766;53.490;10.174;2023-10-13T06:23:03;21.50;93.00
3504;DHT22;1766;53.490;10.174;2023-10-13T06:25:19;21.50;93.10
3504;DHT22;1766;53.490;10.174;2023-10-13T06:27:35;21.50;93.10
3504;DHT22;1766;53.490;10.174;2023-10-13T06:29:52;21.50;93.10
3504;DHT22;1766;53.490;10.174;2023-10-13T06:31:55;21.60;93.20
3504;DHT22;1766;53.490;10.174;2023-10-13T06:33:58;21.60;93.30
3504;DHT22;1766;53.490;10.174;2023-10-13T06:36:04;21.60;93.30
3504;DHT22;1766;53.490;10.174;2023-10-13T06:38:09;21.70;93.40
3504;DHT22;1766;53.490;10.174;2023-10-13T06:40:21;21.70;93.40
3504;DHT22;1766;53.490;10.174;2023-10-13T06:42:44;21.70;93.10
3504;DHT22;1766;53.490;10.174;2023-10-13T06:44:46;21.70;93.50
3504;DHT22;1766;53.490;10.174;2023-10-13T06:46:48;21.80;93.50
3504;DHT22;1766;53.490;10.174;2023-10-13T06:48:53;21.80;93.50
3504;DHT22;1766;53.490;10.174;2023-10-13T06:50:56;21.80;93.60
3504;DHT22;1766;53.490;10.174;2023-10-13T06:53:03;21.90;93.70
3504;DHT22;1766;53.490;10.174;2023-10-13T06:55:06;21.90;93.70
3504;DHT22;1766;53.490;10.174;2023-10-13T06:57:10;21.90;93.70
3504;DHT22;1766;53.490;10.174;2023-10-13T06:59:16;21.50;93.50
3504;DHT22;1766;53.490;10.174;2023-10-13T07:01:18;21.90;93.70
3504;DHT22;1766;53.490;10.174;2023-10-13T07:03:22;22.00;93.80
3504;DHT22;1766;53.490;10.174;2023-10-13T07:05:25;22.00;93.80
3504;DHT22;1766;53.490;10.174;2023-10-13T07:07:27;22.00;93.80
3504;DHT22;1766;53.490;10.174;2023-10-13T07:09:29;22.00;93.80
3504;DHT22;1766;53.490;10.174;2023-10-13T07:11:45;22.00;93.80
3504;DHT22;1766;53.490;10.174;2023-10-13T07:13:53;22.00;93.80
3504;DHT22;1766;53.490;10.174;2023-10-13T07:15:56;22.00;93.80
3504;DHT22;1766;53.490;10.174;2023-10-13T07:18:06;22.00;93.90
3504;DHT22;1766;53.490;10.174;2023-10-13T07:20:08;22.10;93.90
3504;DHT22;1766;53.490;10.174;2023-10-13T07:22:17;22.00;93.90
3504;DHT22;1766;53.490;10.174;2023-10-13T07:24:20;22.00;94.00
3504;DHT22;1766;53.490;10.174;2023-10-13T07:26:22;22.10;94.00
3504;DHT22;1766;53.490;10.174;2023-10-13T07:28:25;22.10;94.00
3504;DHT22;1766;53.490;10.174;2023-10-13T07:30:26;22.10;94.10
3504;DHT22;1766;53.490;10.174;2023-10-13T07:32:30;22.10;94.10
3504;DHT22;1766;53.490;10.174;2023-10-13T07:34:34;22.10;94.10
3504;DHT22;1766;53.490;10.174;2023-10-13T07:36:36;22.10;94.10
3504;DHT22;1766;53.490;10.174;2023-10-13T07:38:42;22.20;94.20
3504;DHT22;1766;53.490;10.174;2023-10-13T07:40:48;22.10;94.20
3504;DHT22;1766;53.490;10.174;2023-10-13T07:42:52;22.10;94.20
3504;DHT22;1766;53.490;10.174;2023-10-13T07:44:53;22.20;94.30
3504;DHT22;1766;53.490;10.174;2023-10-13T07:46:56;22.20;94.30
3504;DHT22;1766;53.490;10.174;2023-10-13T07:49:01;22.20;94.30
3504;DHT22;1766;53.490;10.174;2023-10-13T07:51:15;22.20;94.30
3504;DHT22;1766;53.490;10.174;2023-10-13T07:53:17;22.20;94.30
3504;DHT22;1766;53.490;10.174;2023-10-13T07:55:19;22.20;94.30
3504;DHT22;1766;53.490;10.174;2023-10-13T07:57:22;22.20;94.30
3504;DHT22;1766;53.490;10.174;2023-10-13T07:59:29;22.20;94.30
3504;DHT22;1766;53.490;10.174;2023-10-13T08:01:31;22.20;94.30
3504;DHT22;1766;53.490;10.174;2023-10-13T08:03:35;22.30;94.40
3504;DHT22;1766;53.490;10.174;2023-10-13T08:05:52;22.20;94.40
3504;DHT22;1766;53.490;10.174;2023-10-13T08:07:59;22.30;94.40
3504;DHT22;1766;53.490;10.174;2023-10-13T08:10:00;22.30;94.40
3504;DHT22;1766;53.490;10.174;2023-10-13T08:12:03;22.30;94.40
3504;DHT22;1766;53.490;10.174;2023-10-13T08:14:06;22.30;94.40
3504;DHT22;1766;53.490;10.174;2023-10-13T08:16:23;22.30;94.40
3504;DHT22;1766;53.490;10.174;2023-10-13T08:18:30;22.30;94.40
3504;DHT22;1766;53.490;10.174;2023-10-13T08:20:31;22.30;94.40
3504;DHT22;1766;53.490;10.174;2023-10-13T08:22:40;22.30;94.40
3504;DHT22;1766;53.490;10.174;2023-10-13T08:24:48;22.30;94.40
3504;DHT22;1766;53.490;10.174;2023-10-13T08:27:17;22.30;94.40
3504;DHT22;1766;53.490;10.174;2023-10-13T08:29:34;22.30;94.50
3504;DHT22;1766;53.490;10.174;2023-10-13T08:31:51;22.30;94.40
3504;DHT22;1766;53.490;10.174;2023-10-13T08:34:14;22.30;94.50
3504;DHT22;1766;53.490;10.174;2023-10-13T08:36:23;22.30;94.40
3504;DHT22;1766;53.490;10.174;2023-10-13T08:38:31;22.30;94.40
3504;DHT22;1766;53.490;10.174;2023-10-13T08:40:50;22.30;94.50
3504;DHT22;1766;53.490;10.174;2023-10-13T08:43:06;22.30;94.50
3504;DHT22;1766;53.490;10.174;2023-10-13T08:45:14;22.30;94.50
3504;DHT22;1766;53.490;10.174;2023-10-13T08:47:42;22.30;94.50
3504;DHT22;1766;53.490;10.174;2023-10-13T08:49:54;22.30;94.50
3504;DHT22;1766;53.490;10.174;2023-10-13T08:52:14;22.30;94.50
3504;DHT22;1766;53.490;10.174;2023-10-13T08:54:33;22.30;94.60
3504;DHT22;1766;53.490;10.174;2023-10-13T08:56:39;22.30;94.60
3504;DHT22;1766;53.490;10.174;2023-10-13T08:58:49;22.20;94.50
3504;DHT22;1766;53.490;10.174;2023-10-13T09:01:05;22.30;94.60
3504;DHT22;1766;53.490;10.174;2023-10-13T09:03:13;22.30;94.60
3504;DHT22;1766;53.490;10.174;2023-10-13T09:05:29;22.20;94.50
3504;DHT22;1766;53.490;10.174;2023-10-13T09:07:45;22.20;94.60
3504;DHT22;1766;53.490;10.174;2023-10-13T09:09:49;22.30;94.60
3504;DHT22;1766;53.490;10.174;2023-10-13T09:12:10;22.20;94.60
3504;DHT22;1766;53.490;10.174;2023-10-13T09:14:14;22.20;94.60
3504;DHT22;1766;53.490;10.174;2023-10-13T09:16:33;22.20;94.60
3504;DHT22;1766;53.490;10.174;2023-10-13T09:18:49;22.20;94.50
3504;DHT22;1766;53.490;10.174;2023-10-13T09:20:59;22.20;94.60
3504;DHT22;1766;53.490;10.174;2023-10-13T09:23:20;22.20;94.60
3504;DHT22;1766;53.490;10.174;2023-10-13T09:25:27;22.20;94.70
3504;DHT22;1766;53.490;10.174;2023-10-13T09:27:33;22.20;94.80
3504;DHT22;1766;53.490;10.174;2023-10-13T09:29:38;22.20;94.80
3504;DHT22;1766;53.490;10.174;2023-10-13T09:31:42;22.30;94.90
3504;DHT22;1766;53.490;10.174;2023-10-13T09:33:46;22.30;94.90
3504;DHT22;1766;53.490;10.174;2023-10-13T09:35:51;22.30;94.90
3504;DHT22;1766;53.490;10.174;2023-10-13T09:37:54;22.40;95.00
3504;DHT22;1766;53.490;10.174;2023-10-13T09:39:58;22.40;95.00
3504;DHT22;1766;53.490;10.174;2023-10-13T09:42:07;22.50;95.00
3504;DHT22;1766;53.490;10.174;2023-10-13T09:44:10;22.50;95.00
3504;DHT22;1766;53.490;10.174;2023-10-13T09:46:17;22.50;95.00
3504;DHT22;1766;53.490;10.174;2023-10-13T09:48:21;22.50;95.10
3504;DHT22;1766;53.490;10.174;2023-10-13T09:50:29;22.60;95.20
3504;DHT22;1766;53.490;10.174;2023-10-13T09:52:34;22.60;95.10
3504;DHT22;1766;53.490;10.174;2023-10-13T09:54:40;22.70;95.20
3504;DHT22;1766;53.490;10.174;2023-10-13T09:56:45;22.70;95.20
3504;DHT22;1766;53.490;10.174;2023-10-13T09:58:58;22.80;95.20
3504;DHT22;1766;53.490;10.174;2023-10-13T10:01:09;22.80;95.20
3504;DHT22;1766;53.490;10.174;2023-10-13T10:03:11;22.90;95.10
3504;DHT22;1766;53.490;10.174;2023-10-13T10:05:24;22.90;95.10
3504;DHT22;1766;53.490;10.174;2023-10-13T10:07:27;22.90;95.10
3504;DHT22;1766;53.490;10.174;2023-10-13T10:09:30;22.90;95.10
3504;DHT22;1766;53.490;10.174;2023-10-13T10:11:57;22.90;95.10
3504;DHT22;1766;53.490;10.174;2023-10-13T10:14:13;22.90;95.00
3504;DHT22;1766;53.490;10.174;2023-10-13T10:16:28;22.90;95.00
3504;DHT22;1766;53.490;10.174;2023-10-13T10:18:36;22.90;94.90
3504;DHT22;1766;53.490;10.174;2023-10-13T10:20:40;22.90;94.90
3504;DHT22;1766;53.490;10.174;2023-10-13T10:22:42;22.90;94.90
3504;DHT22;1766;53.490;10.174;2023-10-13T10:24:56;23.00;94.90
3504;DHT22;1766;53.490;10.174;2023-10-13T10:26:58;23.00;94.90
3504;DHT22;1766;53.490;10.174;2023-10-13T10:28:59;23.00;94.90
3504;DHT22;1766;53.490;10.174;2023-10-13T10:31:09;22.90;94.80
3504;DHT22;1766;53.490;10.174;2023-10-13T10:33:14;23.00;94.90
3504;DHT22;1766;53.490;10.174;2023-10-13T10:35:23;23.00;94.80
3504;DHT22;1766;53.490;10.174;2023-10-13T10:37:31;23.00;94.90
3504;DHT22;1766;53.490;10.174;2023-10-13T10:39:35;23.00;94.80
3504;DHT22;1766;53.490;10.174;2023-10-13T10:41:45;23.00;94.90
3504;DHT22;1766;53.490;10.174;2023-10-13T10:43:52;23.00;94.80
3504;DHT22;1766;53.490;10.174;2023-10-13T10:45:54;23.10;94.80
3504;DHT22;1766;53.490;10.174;2023-10-13T10:48:01;23.10;94.90
3504;DHT22;1766;53.490;10.174;2023-10-13T10:50:25;23.10;94.90
3504;DHT22;1766;53.490;10.174;2023-10-13T10:52:35;23.10;95.00
3504;DHT22;1766;53.490;10.174;2023-10-13T10:54:39;23.10;95.00
3504;DHT22;1766;53.490;10.174;2023-10-13T10:56:46;23.20;95.00
3504;DHT22;1766;53.490;10.174;2023-10-13T10:58:54;23.20;95.00
3504;DHT22;1766;53.490;10.174;2023-10-13T11:01:11;23.20;95.10
3504;DHT22;1766;53.490;10.174;2023-10-13T11:03:20;23.30;95.10
3504;DHT22;1766;53.490;10.174;2023-10-13T11:05:22;23.40;95.20
3504;DHT22;1766;53.490;10.174;2023-10-13T11:07:32;23.40;95.20
3504;DHT22;1766;53.490;10.174;2023-10-13T11:09:36;23.50;95.20
3504;DHT22;1766;53.490;10.174;2023-10-13T11:11:46;23.50;95.20
3504;DHT22;1766;53.490;10.174;2023-10-13T11:13:52;23.50;95.20
3504;DHT22;1766;53.490;10.174;2023-10-13T11:15:55;23.60;95.20
3504;DHT22;1766;53.490;10.174;2023-10-13T11:17:57;23.60;95.20
3504;DHT22;1766;53.490;10.174;2023-10-13T11:20:08;23.60;95.20
3504;DHT22;1766;53.490;10.174;2023-10-13T11:22:18;23.70;95.30
3504;DHT22;1766;53.490;10.174;2023-10-13T11:24:39;23.70;95.30
3504;DHT22;1766;53.490;10.174;2023-10-13T11:26:42;23.70;95.30
3504;DHT22;1766;53.490;10.174;2023-10-13T11:28:50;23.80;95.30
3504;DHT22;1766;53.490;10.174;2023-10-13T11:30:53;23.80;95.20
3504;DHT22;1766;53.490;10.174;2023-10-13T11:32:59;23.80;95.30
3504;DHT22;1766;53.490;10.174;2023-10-13T11:35:03;23.90;95.40
3504;DHT22;1766;53.490;10.174;2023-10-13T11:37:10;22.90;94.90
3504;DHT22;1766;53.490;10.174;2023-10-13T11:39:25;24.00;95.40
3504;DHT22;1766;53.490;10.174;2023-10-13T11:41:34;24.10;95.50
3504;DHT22;1766;53.490;10.174;2023-10-13T11:43:39;24.10;95.40
3504;DHT22;1766;53.490;10.174;2023-10-13T11:45:53;24.20;95.50
3504;DHT22;1766;53.490;10.174;2023-10-13T11:47:56;24.20;95.40
3504;DHT22;1766;53.490;10.174;2023-10-13T11:50:00;24.30;95.40
3504;DHT22;1766;53.490;10.174;2023-10-13T11:52:07;24.30;95.40
3504;DHT22;1766;53.490;10.174;2023-10-13T11:54:17;24.40;95.40
3504;DHT22;1766;53.490;10.174;2023-10-13T11:56:20;24.50;95.40
3504;DHT22;1766;53.490;10.174;2023-10-13T11:58:22;24.50;95.30
3504;DHT22;1766;53.490;10.174;2023-10-13T12:00:23;24.50;95.30
3504;DHT22;1766;53.490;10.174;2023-10-13T12:02:47;24.60;95.30
3504;DHT22;1766;53.490;10.174;2023-10-13T12:05:04;24.60;95.20
3504;DHT22;1766;53.490;10.174;2023-10-13T12:07:13;24.70;95.20
3504;DHT22;1766;53.490;10.174;2023-10-13T12:09:18;24.70;95.10
3504;DHT22;1766;53.490;10.174;2023-10-13T12:11:41;24.80;95.00
3504;DHT22;1766;53.490;10.174;2023-10-13T12:13:42;24.80;95.00
3504;DHT22;1766;53.490;10.174;2023-10-13T12:15:44;24.90;94.90
3504;DHT22;1766;53.490;10.174;2023-10-13T12:17:57;24.90;94.90
3504;DHT22;1766;53.490;10.174;2023-10-13T12:19:59;25.00;94.80
3504;DHT22;1766;53.490;10.174;2023-10-13T12:22:01;25.00;94.70
3504;DHT22;1766;53.490;10.174;2023-10-13T12:24:07;25.00;94.60
3504;DHT22;1766;53.490;10.174;2023-10-13T12:26:12;25.10;94.50
3504;DHT22;1766;53.490;10.174;2023-10-13T12:28:22;25.10;94.40
3504;DHT22;1766;53.490;10.174;2023-10-13T12:30:24;25.20;94.40
3504;DHT22;1766;53.490;10.174;2023-10-13T12:32:49;25.20;94.20
3504;DHT22;1766;53.490;10.174;2023-10-13T12:34:59;25.30;94.20
3504;DHT22;1766;53.490;10.174;2023-10-13T12:37:17;25.30;94.00
3504;DHT22;1766;53.490;10.174;2023-10-13T12:39:40;25.30;93.80
3504;DHT22;1766;53.490;10.174;2023-10-13T12:41:55;25.40;93.70
3504;DHT22;1766;53.490;10.174;2023-10-13T12:44:11;25.40;93.60
3504;DHT22;1766;53.490;10.174;2023-10-13T12:46:27;25.40;93.50
3504;DHT22;1766;53.490;10.174;2023-10-13T12:48:44;25.50;93.40
3504;DHT22;1766;53.490;10.174;2023-10-13T12:51:00;25.50;93.20
3504;DHT22;1766;53.490;10.174;2023-10-13T12:53:20;25.50;93.10
3504;DHT22;1766;53.490;10.174;2023-10-13T12:55:23;25.50;92.90
3504;DHT22;1766;53.490;10.174;2023-10-13T12:57:27;25.50;92.80
3504;DHT22;1766;53.490;10.174;2023-10-13T12:59:29;25.60;92.70
3504;DHT22;1766;53.490;10.174;2023-10-13T13:01:30;25.60;92.60
3504;DHT22;1766;53.490;10.174;2023-10-13T13:03:34;25.60;92.50
3504;DHT22;1766;53.490;10.174;2023-10-13T13:05:36;25.60;92.40
3504;DHT22;1766;53.490;10.174;2023-10-13T13:07:45;25.60;92.30
3504;DHT22;1766;53.490;10.174;2023-10-13T13:09:52;25.60;92.20
3504;DHT22;1766;53.490;10.174;2023-10-13T13:12:00;25.70;92.10
3504;DHT22;1766;53.490;10.174;2023-10-13T13:14:02;25.70;92.10
3504;DHT22;1766;53.490;10.174;2023-10-13T13:16:04;25.70;92.00
3504;DHT22;1766;53.490;10.174;2023-10-13T13:18:08;25.70;91.90
3504;DHT22;1766;53.490;10.174;2023-10-13T13:20:13;25.70;91.80
3504;DHT22;1766;53.490;10.174;2023-10-13T13:22:26;25.80;91.80
3504;DHT22;1766;53.490;10.174;2023-10-13T13:24:28;25.80;91.60
3504;DHT22;1766;53.490;10.174;2023-10-13T13:26:31;25.80;91.50
3504;DHT22;1766;53.490;10.174;2023-10-13T13:28:34;25.90;91.40
3504;DHT22;1766;53.490;10.174;2023-10-13T13:30:39;26.00;91.40
3504;DHT22;1766;53.490;10.174;2023-10-13T13:32:41;26.00;91.30
3504;DHT22;1766;53.490;10.174;2023-10-13T13:34:43;26.10;91.20
3504;DHT22;1766;53.490;10.174;2023-10-13T13:36:45;26.10;91.00
3504;DHT22;1766;53.490;10.174;2023-10-13T13:38:52;26.20;90.90
3504;DHT22;1766;53.490;10.174;2023-10-13T13:40:58;26.30;90.80
3504;DHT22;1766;53.490;10.174;2023-10-13T13:43:02;26.30;90.70
3504;DHT22;1766;53.490;10.174;2023-10-13T13:45:06;26.40;90.70
3504;DHT22;1766;53.490;10.174;2023-10-13T13:47:10;26.50;90.60
3504;DHT22;1766;53.490;10.174;2023-10-13T13:49:13;26.60;90.30
3504;DHT22;1766;53.490;10.174;2023-10-13T13:51:19;26.60;90.00
3504;DHT22;1766;53.490;10.174;2023-10-13T13:53:27;26.60;89.50
3504;DHT22;1766;53.490;10.174;2023-10-13T13:55:33;26.60;88.90
3504;DHT22;1766;53.490;10.174;2023-10-13T13:57:35;26.60;88.50
3504;DHT22;1766;53.490;10.174;2023-10-13T13:59:37;26.60;88.00
3504;DHT22;1766;53.490;10.174;2023-10-13T14:01:41;26.60;87.60
3504;DHT22;1766;53.490;10.174;2023-10-13T14:03:45;26.60;87.30
3504;DHT22;1766;53.490;10.174;2023-10-13T14:05:48;26.60;87.00
3504;DHT22;1766;53.490;10.174;2023-10-13T14:07:50;26.60;86.40
3504;DHT22;1766;53.490;10.174;2023-10-13T14:09:53;26.50;86.00
3504;DHT22;1766;53.490;10.174;2023-10-13T14:12:06;26.50;85.60
3504;DHT22;1766;53.490;10.174;2023-10-13T14:14:22;26.50;85.10
3504;DHT22;1766;53.490;10.174;2023-10-13T14:16:33;26.50;84.90
3504;DHT22;1766;53.490;10.174;2023-10-13T14:18:39;26.50;84.70
3504;DHT22;1766;53.490;10.174;2023-10-13T14:20:43;26.40;84.20
3504;DHT22;1766;53.490;10.174;2023-10-13T14:22:45;26.40;84.00
3504;DHT22;1766;53.490;10.174;2023-10-13T14:24:48;26.40;83.70
3504;DHT22;1766;53.490;10.174;2023-10-13T14:26:54;26.40;83.70
3504;DHT22;1766;53.490;10.174;2023-10-13T14:28:56;26.40;83.50
3504;DHT22;1766;53.490;10.174;2023-10-13T14:31:04;26.30;83.20
3504;DHT22;1766;53.490;10.174;2023-10-13T14:33:10;26.30;83.10
3504;DHT22;1766;53.490;10.174;2023-10-13T14:35:13;26.30;82.80
3504;DHT22;1766;53.490;10.174;2023-10-13T14:37:16;26.30;82.50
3504;DHT22;1766;53.490;10.174;2023-10-13T14:39:26;26.30;82.20
3504;DHT22;1766;53.490;10.174;2023-10-13T14:41:30;26.40;82.00
3504;DHT22;1766;53.490;10.174;2023-10-13T14:43:32;26.40;81.80
3504;DHT22;1766;53.490;10.174;2023-10-13T14:45:35;26.30;81.60
3504;DHT22;1766;53.490;10.174;2023-10-13T14:47:37;26.40;81.60
3504;DHT22;1766;53.490;10.174;2023-10-13T14:49:40;26.30;81.50
3504;DHT22;1766;53.490;10.174;2023-10-13T14:51:43;26.30;81.50
3504;DHT22;1766;53.490;10.174;2023-10-13T14:53:46;26.30;81.40